createdAt,value
2018-06-05T00:00:22.535Z,94.10
2018-06-05T00:02:51.144Z,94.30
2018-06-05T00:05:19.891Z,94.30
2018-06-05T00:07:48.781Z,94.40
2018-06-05T00:10:17.301Z,94.50
2018-06-05T00:12:45.950Z,94.60
2018-06-05T00:15:14.468Z,94.70
2018-06-05T00:20:11.432Z,94.80
2018-06-05T00:22:39.911Z,94.90
2018-06-05T00:25:08.392Z,95.10
2018-06-05T00:27:36.977Z,95.10
2018-06-05T00:30:05.562Z,95.10
2018-06-05T00:32:34.309Z,95.20
2018-06-05T00:35:02.726Z,95.20
2018-06-05T00:37:31.208Z,95.30
2018-06-05T00:39:59.997Z,95.50
2018-06-05T00:42:28.478Z,95.40
2018-06-05T00:44:56.965Z,95.80
2018-06-05T00:47:25.441Z,95.90
2018-06-05T00:49:53.818Z,96.00
2018-06-05T00:52:22.198Z,96.00
2018-06-05T00:54:50.576Z,96.00
2018-06-05T00:57:19.057Z,96.00
2018-06-05T00:59:47.539Z,96.00
2018-06-05T01:02:16.021Z,96.00
2018-06-05T01:04:45.320Z,96.10
2018-06-05T01:07:13.699Z,96.20
2018-06-05T01:09:42.283Z,96.30
2018-06-05T01:12:10.764Z,96.30
2018-06-05T01:14:39.001Z,96.30
2018-06-05T01:17:07.285Z,96.50
2018-06-05T01:19:35.524Z,96.50
2018-06-05T01:22:03.783Z,96.70
2018-06-05T01:24:32.033Z,96.60
2018-06-05T01:27:00.304Z,96.60
2018-06-05T01:29:28.682Z,97.10
2018-06-05T01:31:56.984Z,96.90
2018-06-05T01:34:25.241Z,97.10
2018-06-05T01:36:53.560Z,97.00
2018-06-05T01:39:21.811Z,97.10
2018-06-05T01:41:50.084Z,97.20
2018-06-05T01:44:18.433Z,97.30
2018-06-05T01:46:46.691Z,97.30
2018-06-05T01:49:14.947Z,97.30
2018-06-05T01:51:43.924Z,97.30
2018-06-05T01:54:12.168Z,97.50
2018-06-05T01:56:40.448Z,97.60
2018-06-05T01:59:08.709Z,97.60
2018-06-05T02:01:37.017Z,97.80
2018-06-05T02:04:05.262Z,97.80
2018-06-05T02:06:33.519Z,97.90
2018-06-05T02:09:01.756Z,97.90
2018-06-05T02:11:30.168Z,97.90
2018-06-05T02:13:58.494Z,98.00
2018-06-05T02:16:26.846Z,98.00
2018-06-05T02:18:55.167Z,98.10
2018-06-05T02:21:23.408Z,98.00
2018-06-05T02:26:19.514Z,98.20
2018-06-05T02:28:47.822Z,98.30
2018-06-05T02:31:16.064Z,98.40
2018-06-05T02:33:44.332Z,98.40
2018-06-05T02:36:12.583Z,98.40
2018-06-05T02:38:40.899Z,98.80
2018-06-05T02:41:09.133Z,98.50
2018-06-05T02:43:37.390Z,98.50
2018-06-05T02:46:05.644Z,98.50
2018-06-05T02:48:33.875Z,98.70
2018-06-05T02:51:02.144Z,98.70
2018-06-05T02:53:30.405Z,98.80
2018-06-05T02:55:58.827Z,98.80
2018-06-05T02:58:27.080Z,98.90
2018-06-05T03:00:55.345Z,98.90
2018-06-05T03:03:23.613Z,99.00
2018-06-05T03:05:51.859Z,99.00
2018-06-05T03:08:20.221Z,99.10
2018-06-05T03:10:48.446Z,99.00
2018-06-05T03:15:44.562Z,99.10
2018-06-05T03:18:12.917Z,99.20
2018-06-05T03:20:41.155Z,99.20
2018-06-05T03:23:09.424Z,99.20
2018-06-05T03:28:05.579Z,99.20
2018-06-05T03:30:33.839Z,99.20
2018-06-05T03:33:02.103Z,99.20
2018-06-05T03:35:30.336Z,99.10
2018-06-05T03:37:58.643Z,99.10
2018-06-05T03:40:26.883Z,99.10
2018-06-05T03:42:55.132Z,99.10
2018-06-05T03:45:23.456Z,99.10
2018-06-05T03:47:51.717Z,99.10
2018-06-05T03:50:20.025Z,99.10
2018-06-05T03:52:48.272Z,99.20
2018-06-05T03:55:16.519Z,99.20
2018-06-05T03:57:44.789Z,99.50
2018-06-05T04:00:13.022Z,99.00
2018-06-05T04:02:41.273Z,98.90
2018-06-05T04:05:09.504Z,99.00
2018-06-05T04:07:37.757Z,98.90
2018-06-05T04:10:05.998Z,99.00
2018-06-05T04:12:34.247Z,99.00
2018-06-05T04:15:02.517Z,99.00
2018-06-05T04:17:30.757Z,99.00
2018-06-05T04:19:59.012Z,98.80
2018-06-05T04:22:27.256Z,98.80
2018-06-05T04:24:55.531Z,98.70
2018-06-05T04:27:23.778Z,98.80
2018-06-05T04:29:52.276Z,98.60
2018-06-05T04:32:20.551Z,98.70
2018-06-05T04:34:48.897Z,99.00
2018-06-05T04:37:17.135Z,98.70
2018-06-05T04:39:45.383Z,98.60
2018-06-05T04:42:13.742Z,98.80
2018-06-05T04:44:42.758Z,98.70
2018-06-05T04:47:11.412Z,98.70
2018-06-05T04:49:39.694Z,98.50
2018-06-05T04:52:07.930Z,98.10
2018-06-05T04:54:36.174Z,97.90
2018-06-05T04:57:04.441Z,97.60
2018-06-05T04:59:32.708Z,97.40
2018-06-05T05:02:01.128Z,97.20
2018-06-05T05:04:29.354Z,96.90
2018-06-05T05:09:25.560Z,96.50
2018-06-05T05:11:53.766Z,96.20
2018-06-05T05:14:22.018Z,96.00
2018-06-05T05:16:50.479Z,95.90
2018-06-05T05:19:18.862Z,95.40
2018-06-05T05:21:47.138Z,94.70
2018-06-05T05:24:15.395Z,94.60
2018-06-05T05:26:43.637Z,94.10
2018-06-05T05:29:11.910Z,93.40
2018-06-05T05:31:40.218Z,93.00
2018-06-05T05:34:08.497Z,92.60
2018-06-05T05:36:36.865Z,92.30
2018-06-05T05:39:06.482Z,92.10
2018-06-05T05:41:34.726Z,91.60
2018-06-05T05:44:03.029Z,91.40
2018-06-05T05:46:31.273Z,91.40
2018-06-05T05:48:59.566Z,91.30
2018-06-05T05:51:27.768Z,91.00
2018-06-05T05:53:56.151Z,91.10
2018-06-05T05:56:24.787Z,91.20
2018-06-05T06:01:21.037Z,91.20
2018-06-05T06:03:49.526Z,91.30
2018-06-05T06:06:17.837Z,91.30
2018-06-05T06:08:46.232Z,91.50
2018-06-05T06:11:14.615Z,91.20
2018-06-05T06:13:42.983Z,91.30
2018-06-05T06:16:11.299Z,91.30
2018-06-05T06:18:39.663Z,91.20
2018-06-05T06:21:07.900Z,91.30
2018-06-05T06:23:36.172Z,91.10
2018-06-05T06:28:32.446Z,91.00
2018-06-05T06:31:00.700Z,90.60
2018-06-05T06:33:28.924Z,90.30
2018-06-05T06:35:57.214Z,90.00
2018-06-05T06:38:25.459Z,89.40
2018-06-05T06:40:53.787Z,89.00
2018-06-05T06:43:22.060Z,88.60
2018-06-05T06:45:50.313Z,88.50
2018-06-05T06:48:18.556Z,89.30
2018-06-05T06:50:46.794Z,89.40
2018-06-05T06:53:15.040Z,90.10
2018-06-05T06:55:43.282Z,90.20
2018-06-05T06:58:11.606Z,90.50
2018-06-05T07:00:39.863Z,91.00
2018-06-05T07:03:08.116Z,90.80
2018-06-05T07:05:37.312Z,91.30
2018-06-05T07:08:05.738Z,90.90
2018-06-05T07:10:33.989Z,90.90
2018-06-05T07:13:02.226Z,90.90
2018-06-05T07:15:30.476Z,91.10
2018-06-05T07:17:58.714Z,91.20
2018-06-05T07:20:27.893Z,90.90
2018-06-05T07:22:56.171Z,90.80
2018-06-05T07:25:24.474Z,90.90
2018-06-05T07:27:52.770Z,91.00
2018-06-05T07:30:21.087Z,90.60
2018-06-05T07:32:49.531Z,90.90
2018-06-05T07:35:17.831Z,90.90
2018-06-05T07:37:46.077Z,90.90
2018-06-05T07:40:14.404Z,90.80
2018-06-05T07:42:42.663Z,90.40
2018-06-05T07:45:10.973Z,89.70
2018-06-05T07:47:39.249Z,89.70
2018-06-05T07:50:07.578Z,88.40
2018-06-05T07:52:35.859Z,87.50
2018-06-05T07:55:04.123Z,84.30
2018-06-05T07:57:32.371Z,83.10
2018-06-05T08:00:00.616Z,81.40
2018-06-05T08:02:28.847Z,80.70
2018-06-05T08:07:24.969Z,77.30
2018-06-05T08:09:53.254Z,75.30
2018-06-05T08:12:21.620Z,74.90
2018-06-05T08:14:50.067Z,75.10
2018-06-05T08:17:18.317Z,74.10
2018-06-05T08:19:46.655Z,73.20
2018-06-05T08:22:14.894Z,72.80
2018-06-05T08:24:43.183Z,71.00
2018-06-05T08:27:11.427Z,70.10
2018-06-05T08:29:39.775Z,70.50
2018-06-05T08:32:13.489Z,71.80
2018-06-05T08:34:41.750Z,70.40
2018-06-05T08:37:10.017Z,70.70
2018-06-05T08:39:38.295Z,70.20
2018-06-05T08:42:06.535Z,71.10
2018-06-05T08:44:34.884Z,70.30
2018-06-05T08:47:03.167Z,70.30
2018-06-05T08:49:31.421Z,70.00
2018-06-05T08:51:59.940Z,69.30
2018-06-05T08:54:28.194Z,69.40
2018-06-05T08:56:56.485Z,68.90
2018-06-05T08:59:25.396Z,68.70
2018-06-05T09:01:54.197Z,69.70
2018-06-05T09:04:23.102Z,69.60
2018-06-05T09:06:51.645Z,69.80
2018-06-05T09:09:20.689Z,70.70
2018-06-05T09:11:50.189Z,71.50
2018-06-05T09:14:19.084Z,73.10
2018-06-05T09:16:47.366Z,72.80
2018-06-05T09:19:15.605Z,73.20
2018-06-05T09:21:43.900Z,73.80
2018-06-05T09:24:12.138Z,74.50
2018-06-05T09:26:40.388Z,73.70
2018-06-05T09:29:08.641Z,74.00
2018-06-05T09:31:36.883Z,74.20
2018-06-05T09:34:05.164Z,74.10
2018-06-05T09:36:33.452Z,74.10
2018-06-05T09:39:01.748Z,74.40
2018-06-05T09:41:29.997Z,75.60
2018-06-05T09:43:58.237Z,75.20
2018-06-05T09:46:26.617Z,75.10
2018-06-05T09:48:54.855Z,75.00
2018-06-05T09:51:23.176Z,74.50
2018-06-05T09:53:51.432Z,74.30
2018-06-05T09:56:19.768Z,74.30
2018-06-05T09:58:48.020Z,74.50
2018-06-05T10:01:16.323Z,74.00
2018-06-05T10:03:44.586Z,74.80
2018-06-05T10:06:12.844Z,74.40
2018-06-05T10:08:41.098Z,74.30
2018-06-05T10:11:09.430Z,74.70
2018-06-05T10:13:37.660Z,74.10
2018-06-05T10:16:05.915Z,73.80
2018-06-05T10:18:34.164Z,72.40
2018-06-05T10:21:02.436Z,71.40
2018-06-05T10:23:30.675Z,70.60
2018-06-05T10:25:59.006Z,71.00
2018-06-05T10:28:27.263Z,71.10
2018-06-05T10:30:55.523Z,69.60
2018-06-05T10:33:23.788Z,68.10
2018-06-05T10:35:52.028Z,68.10
2018-06-05T10:38:20.256Z,67.00
2018-06-05T10:40:48.506Z,66.50
2018-06-05T10:43:16.844Z,64.90
2018-06-05T10:45:45.109Z,64.30
2018-06-05T10:48:13.335Z,62.60
2018-06-05T10:50:42.053Z,61.70
2018-06-05T10:53:10.385Z,60.20
2018-06-05T10:55:38.630Z,59.70
2018-06-05T10:58:06.870Z,60.20
2018-06-05T11:00:35.128Z,59.90
2018-06-05T11:03:03.404Z,59.40
2018-06-05T11:05:31.653Z,58.80
2018-06-05T11:10:27.914Z,58.50
2018-06-05T11:12:56.156Z,57.80
2018-06-05T11:15:24.440Z,57.50
2018-06-05T11:17:52.772Z,57.70
2018-06-05T11:20:21.020Z,56.90
2018-06-05T11:25:17.136Z,55.30
2018-06-05T11:27:45.402Z,56.00
2018-06-05T11:30:13.659Z,57.10
2018-06-05T11:32:42.458Z,58.10
2018-06-05T11:35:10.668Z,57.20
2018-06-05T11:37:38.933Z,56.50
2018-06-05T11:40:07.198Z,57.40
2018-06-05T11:42:35.440Z,58.20
2018-06-05T11:45:03.786Z,58.30
2018-06-05T11:47:32.045Z,57.80
2018-06-05T11:50:00.276Z,58.40
2018-06-05T11:52:28.539Z,58.40
2018-06-05T11:54:56.791Z,58.90
2018-06-05T11:57:25.983Z,60.50
2018-06-05T11:59:55.311Z,61.50
2018-06-05T12:02:24.562Z,63.00
2018-06-05T12:07:20.833Z,63.50
2018-06-05T12:09:49.081Z,63.40
2018-06-05T12:12:17.431Z,65.40
2018-06-05T12:14:45.770Z,66.60
2018-06-05T12:17:14.936Z,67.00
2018-06-05T12:19:43.218Z,66.20
2018-06-05T12:22:11.462Z,66.50
2018-06-05T12:24:39.721Z,65.90
2018-06-05T12:27:07.975Z,64.90
2018-06-05T12:32:04.116Z,64.80
2018-06-05T12:34:32.376Z,63.90
2018-06-05T12:37:01.327Z,61.80
2018-06-05T12:39:29.604Z,62.90
2018-06-05T12:41:57.903Z,62.90
2018-06-05T12:44:26.183Z,63.90
2018-06-05T12:46:54.600Z,63.80
2018-06-05T12:49:22.863Z,62.50
2018-06-05T12:51:51.119Z,62.50
2018-06-05T12:54:19.434Z,61.30
2018-06-05T12:56:48.371Z,60.80
2018-06-05T12:59:17.753Z,59.40
2018-06-05T13:01:47.182Z,58.60
2018-06-05T13:04:15.469Z,59.20
2018-06-05T13:06:43.777Z,58.60
2018-06-05T13:09:12.015Z,59.20
2018-06-05T13:11:40.282Z,59.30
2018-06-05T13:14:08.568Z,59.70
2018-06-05T13:16:36.829Z,60.50
2018-06-05T13:19:05.091Z,61.80
2018-06-05T13:21:33.350Z,60.90
2018-06-05T13:24:01.608Z,61.60
2018-06-05T13:28:57.770Z,64.30
2018-06-05T13:31:26.033Z,62.00
2018-06-05T13:33:54.299Z,62.50
2018-06-05T13:36:22.601Z,63.50
2018-06-05T13:38:50.872Z,64.10
2018-06-05T13:41:19.150Z,64.00
2018-06-05T13:43:47.458Z,64.10
2018-06-05T13:46:15.673Z,63.90
2018-06-05T13:48:43.990Z,64.20
2018-06-05T13:51:12.316Z,65.50
2018-06-05T13:53:40.569Z,65.80
2018-06-05T13:56:08.911Z,67.70
2018-06-05T13:58:37.172Z,66.60
2018-06-05T14:01:05.594Z,67.00
2018-06-05T14:03:33.852Z,65.20
2018-06-05T14:06:02.098Z,64.80
2018-06-05T14:08:30.609Z,63.60
2018-06-05T14:10:58.838Z,64.50
2018-06-05T14:13:27.125Z,65.80
2018-06-05T14:18:23.380Z,64.80
2018-06-05T14:23:20.134Z,65.70
2018-06-05T14:25:48.403Z,65.70
2018-06-05T14:28:16.694Z,66.00
2018-06-05T14:30:45.065Z,66.60
2018-06-05T14:33:13.432Z,66.30
2018-06-05T14:35:41.752Z,67.20
2018-06-05T14:38:10.084Z,67.30
2018-06-05T14:40:38.414Z,66.60
2018-06-05T14:43:06.761Z,66.80
2018-06-05T14:45:35.148Z,67.10
2018-06-05T14:48:03.581Z,66.80
2018-06-05T14:50:31.964Z,67.20
2018-06-05T14:53:00.160Z,68.00
2018-06-05T14:55:28.396Z,67.70
2018-06-05T15:00:24.515Z,65.80
2018-06-05T15:02:52.792Z,66.30
2018-06-05T15:05:21.088Z,66.70
2018-06-05T15:07:49.328Z,65.30
2018-06-05T15:10:17.615Z,66.30
2018-06-05T15:12:46.071Z,65.90
2018-06-05T15:15:14.381Z,66.30
2018-06-05T15:17:42.663Z,66.70
2018-06-05T15:20:10.924Z,67.30
2018-06-05T15:22:39.248Z,67.40
2018-06-05T15:25:07.530Z,66.70
2018-06-05T15:27:35.825Z,65.20
2018-06-05T15:30:04.739Z,63.70
2018-06-05T15:32:33.110Z,64.90
2018-06-05T15:35:01.527Z,64.10
2018-06-05T15:37:29.907Z,66.40
2018-06-05T15:39:58.200Z,66.20
2018-06-05T15:42:26.482Z,67.20
2018-06-05T15:44:54.803Z,66.30
2018-06-05T15:47:23.042Z,64.80
2018-06-05T15:49:51.458Z,64.80
2018-06-05T15:52:19.717Z,64.00
2018-06-05T15:54:48.030Z,64.20
2018-06-05T15:57:16.474Z,65.20
2018-06-05T15:59:45.382Z,66.30
2018-06-05T16:02:14.718Z,67.30
2018-06-05T16:04:43.860Z,67.50
2018-06-05T16:07:12.741Z,67.60
2018-06-05T16:12:09.853Z,68.20
2018-06-05T16:14:38.790Z,68.00
2018-06-05T16:17:07.733Z,65.90
2018-06-05T16:19:36.930Z,65.30
2018-06-05T16:22:05.968Z,65.90
2018-06-05T16:24:35.255Z,65.60
2018-06-05T16:27:03.678Z,66.80
2018-06-05T16:29:31.971Z,65.70
2018-06-05T16:32:00.259Z,65.80
2018-06-05T16:34:28.505Z,65.20
2018-06-05T16:36:56.732Z,65.80
2018-06-05T16:41:52.967Z,67.20
2018-06-05T16:44:21.264Z,67.40
2018-06-05T16:46:49.520Z,67.80
2018-06-05T16:49:17.796Z,67.40
2018-06-05T16:51:46.050Z,66.70
2018-06-05T16:54:14.437Z,66.70
2018-06-05T16:56:43.128Z,67.40
2018-06-05T16:59:12.126Z,67.90
2018-06-05T17:01:41.104Z,67.90
2018-06-05T17:04:09.941Z,67.10
2018-06-05T17:06:38.302Z,67.00
2018-06-05T17:09:07.750Z,66.00
2018-06-05T17:11:36.628Z,65.70
2018-06-05T17:14:05.748Z,66.10
2018-06-05T17:16:34.143Z,65.40
2018-06-05T17:19:02.464Z,64.90
2018-06-05T17:21:30.753Z,64.50
2018-06-05T17:23:59.010Z,64.60
2018-06-05T17:26:27.241Z,65.30
2018-06-05T17:28:55.495Z,65.50
2018-06-05T17:31:23.753Z,65.80
2018-06-05T17:33:52.012Z,66.60
2018-06-05T17:36:20.264Z,67.00
2018-06-05T17:38:48.542Z,67.80
2018-06-05T17:41:16.798Z,68.60
2018-06-05T17:43:45.052Z,69.60
2018-06-05T17:46:13.302Z,69.40
2018-06-05T17:48:41.560Z,70.00
2018-06-05T17:51:09.831Z,70.70
2018-06-05T17:53:38.141Z,71.50
2018-06-05T17:56:06.371Z,72.70
2018-06-05T17:58:34.639Z,73.40
2018-06-05T18:01:02.912Z,74.60
2018-06-05T18:03:31.148Z,75.60
2018-06-05T18:05:59.971Z,76.50
2018-06-05T18:08:28.208Z,77.50
2018-06-05T18:10:56.556Z,78.20
2018-06-05T18:13:24.811Z,79.60
2018-06-05T18:15:53.079Z,79.50
2018-06-05T18:18:21.340Z,80.00
2018-06-05T18:20:49.660Z,80.30
2018-06-05T18:23:17.953Z,80.40
2018-06-05T18:25:46.239Z,80.80
2018-06-05T18:28:14.564Z,80.50
2018-06-05T18:30:42.988Z,79.50
2018-06-05T18:33:11.299Z,79.50
2018-06-05T18:35:39.625Z,79.70
2018-06-05T18:38:07.907Z,79.20
2018-06-05T18:43:04.391Z,78.30
2018-06-05T18:45:32.731Z,78.20
2018-06-05T18:48:01.058Z,78.00
2018-06-05T18:50:29.362Z,78.60
2018-06-05T18:52:57.661Z,78.10
2018-06-05T18:55:26.102Z,78.10
2018-06-05T18:57:55.358Z,77.80
2018-06-05T19:00:24.499Z,77.80
2018-06-05T19:02:52.947Z,77.70
2018-06-05T19:05:21.345Z,77.70
2018-06-05T19:07:49.659Z,77.50
2018-06-05T19:10:18.153Z,77.40
2018-06-05T19:12:46.435Z,77.10
2018-06-05T19:15:14.776Z,76.60
2018-06-05T19:17:43.092Z,76.30
2018-06-05T19:20:11.403Z,76.60
2018-06-05T19:22:39.716Z,76.60
2018-06-05T19:25:08.049Z,76.50
2018-06-05T19:27:36.335Z,77.20
2018-06-05T19:30:04.745Z,77.40
2018-06-05T19:32:33.033Z,77.50
2018-06-05T19:35:01.383Z,77.90
2018-06-05T19:37:29.653Z,78.10
2018-06-05T19:39:58.059Z,78.70
2018-06-05T19:42:26.299Z,79.20
2018-06-05T19:44:54.566Z,81.00
2018-06-05T19:47:29.275Z,82.80
2018-06-05T19:49:59.336Z,83.30
2018-06-05T19:52:27.760Z,85.00
2018-06-05T19:54:57.028Z,85.40
2018-06-05T19:57:26.396Z,85.50
2018-06-05T19:59:56.564Z,84.50
2018-06-05T20:02:25.029Z,85.20
2018-06-05T20:04:54.142Z,84.20
2018-06-05T20:07:26.470Z,86.30
2018-06-05T20:09:54.974Z,86.20
2018-06-05T20:14:51.197Z,86.50
2018-06-05T20:17:19.464Z,87.00
2018-06-05T20:19:48.172Z,87.90
2018-06-05T20:22:16.377Z,88.40
2018-06-05T20:24:44.652Z,88.40
2018-06-05T20:27:12.897Z,88.30
2018-06-05T20:29:41.181Z,88.20
2018-06-05T20:32:09.444Z,89.10
2018-06-05T20:34:37.699Z,86.90
2018-06-05T20:37:05.963Z,87.90
2018-06-05T20:39:34.286Z,88.90
2018-06-05T20:42:02.541Z,87.40
2018-06-05T20:44:30.788Z,87.70
2018-06-05T20:46:59.046Z,88.10
2018-06-05T20:49:27.291Z,87.70
2018-06-05T20:51:55.605Z,88.40
2018-06-05T20:54:23.802Z,88.70
2018-06-05T20:56:52.756Z,87.60
2018-06-05T21:01:50.458Z,88.30
2018-06-05T21:04:19.291Z,88.50
2018-06-05T21:06:48.369Z,88.80
2018-06-05T21:09:16.719Z,88.60
2018-06-05T21:11:45.038Z,88.60
2018-06-05T21:14:13.240Z,88.80
2018-06-05T21:16:41.503Z,89.00
2018-06-05T21:19:09.797Z,89.30
2018-06-05T21:21:38.038Z,89.40
2018-06-05T21:24:06.322Z,89.70
2018-06-05T21:26:34.607Z,89.70
2018-06-05T21:29:02.972Z,90.00
2018-06-05T21:31:31.356Z,90.10
2018-06-05T21:33:59.600Z,90.30
2018-06-05T21:36:27.846Z,90.30
2018-06-05T21:38:56.078Z,90.40
2018-06-05T21:41:24.325Z,90.40
2018-06-05T21:43:52.560Z,90.60
2018-06-05T21:46:20.839Z,90.60
2018-06-05T21:48:49.088Z,90.50
2018-06-05T21:51:17.355Z,90.60
2018-06-05T21:56:13.492Z,91.00
2018-06-05T22:01:09.683Z,91.50
2018-06-05T22:03:37.928Z,91.20
2018-06-05T22:06:06.204Z,91.00
2018-06-05T22:11:02.353Z,91.20
2018-06-05T22:13:30.581Z,91.40
2018-06-05T22:15:58.838Z,91.60
2018-06-05T22:18:27.076Z,91.70
2018-06-05T22:20:55.352Z,91.80
2018-06-05T22:23:23.696Z,92.00
2018-06-05T22:25:52.381Z,91.90
2018-06-05T22:28:20.607Z,92.50
2018-06-05T22:30:49.061Z,92.20
2018-06-05T22:33:17.301Z,92.50
2018-06-05T22:35:45.601Z,92.60
2018-06-05T22:38:13.800Z,92.50
2018-06-05T22:40:42.053Z,92.80
2018-06-05T22:43:10.286Z,92.80
2018-06-05T22:45:38.560Z,93.00
2018-06-05T22:48:06.808Z,93.00
2018-06-05T22:50:35.066Z,93.10
2018-06-05T22:53:03.329Z,93.10
2018-06-05T22:55:31.555Z,93.00
2018-06-05T22:58:00.331Z,93.00
2018-06-05T23:00:32.392Z,92.90
2018-06-05T23:03:01.560Z,93.00
2018-06-05T23:05:30.918Z,92.90
2018-06-05T23:07:59.201Z,93.10
2018-06-05T23:10:27.489Z,93.20
2018-06-05T23:12:55.756Z,93.30
2018-06-05T23:15:24.621Z,93.40
2018-06-05T23:17:53.488Z,93.30
2018-06-05T23:20:21.729Z,93.30
2018-06-05T23:22:49.971Z,93.30
2018-06-05T23:25:18.204Z,93.40
2018-06-05T23:27:46.461Z,93.40
2018-06-05T23:30:15.720Z,93.40
2018-06-05T23:32:43.979Z,93.60
2018-06-05T23:35:12.214Z,93.50
2018-06-05T23:37:40.505Z,93.50
2018-06-05T23:40:08.755Z,93.60
2018-06-05T23:45:05.097Z,93.50
2018-06-05T23:47:33.479Z,93.50
2018-06-05T23:50:01.723Z,93.70
2018-06-05T23:52:30.003Z,93.70
2018-06-05T23:54:58.254Z,93.90
2018-06-05T23:57:26.503Z,93.70
2018-06-05T23:59:54.770Z,93.80
